Time;durP1;ratioP1;P1;durP2;ratioP2;P2;SDS_P1;SDS_P2;PMS_P1;PMS_P2;Temp;Humidity;BMP_temperature;BMP_pressure;BME280_temperature;BME280_humidity;BME280_pressure;Samples;Min_cycle;Max_cycle;Signal;HPM_P1;HPM_P2
2022/06/22 00:00:24;;;;;;;0.30;0.30;;;19.80;99.90;;;;;;5038150;28;20296;-82
2022/06/22 00:02:52;;;;;;;0.50;0.33;;;19.80;99.90;;;;;;5043222;28;20232;-81
2022/06/22 00:05:23;;;;;;;0.13;0.13;;;19.80;99.90;;;;;;5043644;28;20188;-82
2022/06/22 00:07:53;;;;;;;0.30;0.30;;;19.70;99.90;;;;;;5035497;28;20274;-82
2022/06/22 00:10:29;;;;;;;0.57;0.57;;;19.70;99.90;;;;;;5041344;28;20708;-82
2022/06/22 00:12:57;;;;;;;0.13;0.13;;;19.70;99.90;;;;;;5038167;28;20272;-82
2022/06/22 00:15:39;;;;;;;0.13;0.13;;;19.70;99.90;;;;;;5041630;28;20276;-82
2022/06/22 00:18:19;;;;;;;0.53;0.53;;;19.70;99.90;;;;;;5043664;28;20257;-82
2022/06/22 00:20:50;;;;;;;0.43;0.43;;;19.70;99.90;;;;;;5043073;28;20264;-82
2022/06/22 00:23:23;;;;;;;0.57;0.27;;;19.60;99.90;;;;;;5043456;28;20867;-82
2022/06/22 00:25:48;;;;;;;0.40;0.40;;;19.40;99.90;;;;;;5042098;28;20220;-82
2022/06/22 00:28:51;;;;;;;0.20;0.20;;;19.30;99.90;;;;;;5042114;28;20249;-82
2022/06/22 00:31:35;;;;;;;0.33;0.33;;;19.30;99.90;;;;;;5042650;28;20239;-82
2022/06/22 00:34:10;;;;;;;0.53;0.53;;;19.40;99.90;;;;;;5041750;28;20186;-82
2022/06/22 00:36:45;;;;;;;0.60;0.50;;;19.40;99.90;;;;;;5039067;28;20216;-82
2022/06/22 00:39:21;;;;;;;0.30;0.30;;;19.40;99.90;;;;;;5035562;28;20803;-82
2022/06/22 00:42:14;;;;;;;0.27;0.27;;;19.40;99.90;;;;;;5041067;28;20178;-82
2022/06/22 00:44:51;;;;;;;0.43;0.43;;;19.40;99.90;;;;;;5040894;28;20194;-82
2022/06/22 00:47:28;;;;;;;0.30;0.30;;;19.40;99.90;;;;;;5040966;28;20570;-82
2022/06/22 00:49:59;;;;;;;0.30;0.30;;;19.40;99.90;;;;;;5040986;28;20216;-82
2022/06/22 00:52:33;;;;;;;0.20;0.20;;;19.40;99.90;;;;;;5042620;28;20189;-82
2022/06/22 00:54:59;;;;;;;0.30;0.30;;;19.30;99.90;;;;;;5041066;28;20189;-82
2022/06/22 00:57:33;;;;;;;0.10;0.10;;;19.30;99.90;;;;;;5042170;28;20210;-82
2022/06/22 01:00:03;;;;;;;0.30;0.30;;;19.20;99.90;;;;;;5041252;28;20692;-82
2022/06/22 01:02:43;;;;;;;0.50;0.50;;;19.10;99.90;;;;;;5045396;28;20178;-82
2022/06/22 01:05:32;;;;;;;0.37;0.27;;;19.10;99.90;;;;;;5045435;28;20182;-82
2022/06/22 01:08:34;;;;;;;0.20;0.20;;;19.10;99.90;;;;;;5044788;28;21385;-82
2022/06/22 01:12:16;;;;;;;0.30;0.30;;;19.10;99.90;;;;;;4985854;28;20204;-82
2022/06/22 01:13:57;;;;;;;0.50;0.50;;;19.10;99.90;;;;;;5045431;28;20182;-82
2022/06/22 01:16:30;;;;;;;1.13;0.50;;;19.10;99.90;;;;;;5044454;28;20210;-82
2022/06/22 01:19:33;;;;;;;0.40;0.40;;;19.00;99.90;;;;;;5045204;28;20548;-82
2022/06/22 01:22:36;;;;;;;0.63;0.60;;;18.90;99.90;;;;;;5043520;28;20293;-82
2022/06/22 01:25:31;;;;;;;0.33;0.33;;;18.70;99.90;;;;;;5044093;28;20184;-82
2022/06/22 01:27:57;;;;;;;0.30;0.30;;;18.50;99.90;;;;;;5044209;28;20212;-82
2022/06/22 01:30:32;;;;;;;0.50;0.50;;;18.30;99.90;;;;;;5042424;28;20195;-82
2022/06/22 01:33:00;;;;;;;0.20;0.20;;;18.10;99.90;;;;;;5044023;28;20288;-82
2022/06/22 01:35:31;;;;;;;0.20;0.20;;;18.10;99.90;;;;;;5043009;28;20917;-82
2022/06/22 01:37:58;;;;;;;0.50;0.50;;;18.30;99.90;;;;;;5044036;28;20206;-82
2022/06/22 01:40:51;;;;;;;0.20;0.20;;;18.50;99.90;;;;;;5040372;28;20192;-82
2022/06/22 01:43:36;;;;;;;0.53;0.50;;;18.60;99.90;;;;;;5031133;28;20196;-82
2022/06/22 01:46:16;;;;;;;0.30;0.30;;;18.60;99.90;;;;;;5043869;28;20201;-82
2022/06/22 01:49:00;;;;;;;0.23;0.23;;;18.60;99.90;;;;;;5043869;28;20651;-82
2022/06/22 01:51:34;;;;;;;0.17;0.17;;;18.60;99.90;;;;;;5043162;28;20188;-82
2022/06/22 01:54:29;;;;;;;0.27;0.27;;;18.70;99.90;;;;;;5058826;28;20184;-82
2022/06/22 01:57:16;;;;;;;0.30;0.30;;;18.60;99.90;;;;;;5028518;28;20227;-82
2022/06/22 02:00:12;;;;;;;0.50;0.30;;;18.70;99.90;;;;;;5043488;28;20186;-83
2022/06/22 02:02:54;;;;;;;0.47;0.30;;;18.70;99.90;;;;;;5042110;28;20197;-82
2022/06/22 02:05:31;;;;;;;0.20;0.20;;;18.50;99.90;;;;;;5044208;28;20197;-82
2022/06/22 02:08:06;;;;;;;0.20;0.20;;;18.40;99.90;;;;;;5038228;28;20620;-82
2022/06/22 02:10:53;;;;;;;0.30;0.30;;;18.30;99.90;;;;;;5044157;28;20661;-82
2022/06/22 02:13:29;;;;;;;0.40;0.40;;;18.30;99.90;;;;;;5043483;28;20199;-82
2022/06/22 02:16:13;;;;;;;0.20;0.20;;;18.30;99.90;;;;;;5044081;28;20232;-82
2022/06/22 02:18:47;;;;;;;0.23;0.23;;;18.10;99.90;;;;;;5041756;28;20217;-83
2022/06/22 02:21:26;;;;;;;0.20;0.20;;;18.10;99.90;;;;;;5043130;28;20184;-82
2022/06/22 02:24:02;;;;;;;0.27;0.27;;;18.10;99.90;;;;;;5045337;28;20530;-82
2022/06/22 02:26:36;;;;;;;0.50;0.50;;;18.10;99.90;;;;;;5043902;28;20182;-82
2022/06/22 02:29:02;;;;;;;1.00;0.87;;;18.20;99.90;;;;;;5044705;28;20211;-82
2022/06/22 02:31:28;;;;;;;0.20;0.20;;;18.30;99.90;;;;;;5038539;28;20190;-82
2022/06/22 02:33:55;;;;;;;0.30;0.30;;;18.30;99.90;;;;;;5042067;28;20265;-82
2022/06/22 02:36:25;;;;;;;0.50;0.50;;;18.30;99.90;;;;;;5044773;28;20238;-82
2022/06/22 02:38:55;;;;;;;0.23;0.23;;;18.30;99.90;;;;;;5042214;28;20189;-82
2022/06/22 02:44:31;;;;;;;0.43;0.30;;;18.20;99.90;;;;;;5044240;28;20197;-82
2022/06/22 02:47:27;;;;;;;0.23;0.23;;;18.30;99.90;;;;;;5037783;28;20209;-82
2022/06/22 02:50:01;;;;;;;0.40;0.40;;;18.30;99.90;;;;;;5042834;28;20285;-82
2022/06/22 02:52:44;;;;;;;0.30;0.30;;;17.80;99.90;;;;;;5043560;28;20183;-83
2022/06/22 02:55:13;;;;;;;0.40;0.30;;;17.60;99.90;;;;;;5043319;28;20220;-82
2022/06/22 02:57:46;;;;;;;0.40;0.40;;;17.40;99.90;;;;;;5039510;28;20241;-82
2022/06/22 03:00:14;;;;;;;0.40;0.40;;;17.20;99.90;;;;;;5042803;28;20182;-82
2022/06/22 03:02:41;;;;;;;0.50;0.50;;;17.10;99.90;;;;;;5042899;28;20651;-82
2022/06/22 03:05:08;;;;;;;0.27;0.27;;;17.00;99.90;;;;;;5042719;28;20306;-82
2022/06/22 03:07:43;;;;;;;0.40;0.40;;;17.20;99.90;;;;;;5043576;28;20217;-82
2022/06/22 03:10:28;;;;;;;0.60;0.60;;;17.40;99.90;;;;;;5043132;28;20194;-82
2022/06/22 03:12:56;;;;;;;0.37;0.37;;;17.60;99.90;;;;;;5042064;28;20186;-82
2022/06/22 03:15:24;;;;;;;1.90;0.97;;;17.80;99.90;;;;;;5059484;28;20553;-82
2022/06/22 03:17:50;;;;;;;0.40;0.40;;;17.90;99.90;;;;;;5040735;28;20640;-82
2022/06/22 03:20:19;;;;;;;0.57;0.57;;;18.00;99.90;;;;;;5045160;28;20212;-82
2022/06/22 03:23:02;;;;;;;0.10;0.10;;;18.00;99.90;;;;;;5059622;28;20228;-82
2022/06/22 03:25:42;;;;;;;0.33;0.30;;;18.00;99.90;;;;;;5043989;28;20413;-82
2022/06/22 03:28:14;;;;;;;0.83;0.77;;;18.10;99.90;;;;;;5042087;28;20212;-83
2022/06/22 03:30:47;;;;;;;0.30;0.30;;;18.20;99.90;;;;;;5042438;28;20191;-82
2022/06/22 03:33:17;;;;;;;0.10;0.10;;;18.30;99.90;;;;;;5043647;28;20221;-82
2022/06/22 03:36:00;;;;;;;0.30;0.30;;;18.00;99.90;;;;;;5044350;28;20623;-83
2022/06/22 03:38:32;;;;;;;0.37;0.37;;;17.90;99.90;;;;;;5043773;28;20206;-82
2022/06/22 03:41:09;;;;;;;0.40;0.40;;;18.50;99.90;;;;;;5038424;28;20193;-82
2022/06/22 03:43:51;;;;;;;0.40;0.40;;;19.00;99.90;;;;;;5043150;28;20182;-82
2022/06/22 03:46:25;;;;;;;0.40;0.40;;;19.90;99.90;;;;;;5044031;28;20213;-82
2022/06/22 03:49:03;;;;;;;0.67;0.47;;;20.40;99.90;;;;;;5043805;28;20181;-82
2022/06/22 03:51:36;;;;;;;0.67;0.20;;;20.50;99.90;;;;;;5043581;28;20651;-82
2022/06/22 03:54:28;;;;;;;0.40;0.40;;;20.70;99.90;;;;;;5042785;28;20196;-82
2022/06/22 03:56:59;;;;;;;0.20;0.20;;;20.10;99.90;;;;;;5043175;28;20217;-82
2022/06/22 03:59:26;;;;;;;0.10;0.10;;;19.70;99.90;;;;;;5044709;28;20214;-82
2022/06/22 04:01:55;;;;;;;0.50;0.50;;;20.40;99.90;;;;;;5043054;28;20203;-82
2022/06/22 04:04:23;;;;;;;0.30;0.30;;;21.20;99.90;;;;;;5034067;28;20190;-82
2022/06/22 04:06:51;;;;;;;0.30;0.30;;;21.60;99.90;;;;;;5040049;28;20248;-82
2022/06/22 04:09:20;;;;;;;0.40;0.37;;;22.70;99.90;;;;;;5042101;28;20189;-82
2022/06/22 04:12:15;;;;;;;1.60;0.97;;;22.50;99.90;;;;;;5060150;28;20205;-82
2022/06/22 04:15:22;;;;;;;0.67;0.33;;;21.80;99.90;;;;;;5044490;28;20220;-82
2022/06/22 04:17:59;;;;;;;0.30;0.30;;;21.30;99.90;;;;;;5042966;28;20320;-82
2022/06/22 04:20:50;;;;;;;0.40;0.30;;;21.00;99.90;;;;;;5044071;28;20209;-82
2022/06/22 04:23:23;;;;;;;0.40;0.40;;;20.80;99.90;;;;;;5040455;28;20185;-82
2022/06/22 04:25:51;;;;;;;0.40;0.40;;;20.70;99.90;;;;;;5038992;28;20185;-82
2022/06/22 04:28:19;;;;;;;0.20;0.20;;;20.60;99.90;;;;;;5042378;28;21240;-82
2022/06/22 04:30:49;;;;;;;0.67;0.50;;;20.40;99.90;;;;;;5041543;28;20205;-82
2022/06/22 04:33:35;;;;;;;0.40;0.40;;;20.40;99.90;;;;;;5036041;28;20186;-82
2022/06/22 04:36:27;;;;;;;0.30;0.30;;;20.40;99.90;;;;;;5044373;28;20244;-82
2022/06/22 04:39:05;;;;;;;0.23;0.23;;;20.50;99.90;;;;;;5037288;28;20197;-82
2022/06/22 04:41:39;;;;;;;0.50;0.50;;;20.50;99.90;;;;;;5043840;28;20183;-82
2022/06/22 04:44:18;;;;;;;0.83;0.40;;;20.60;99.90;;;;;;5043669;28;20202;-83
2022/06/22 04:46:47;;;;;;;0.27;0.27;;;20.70;99.90;;;;;;5045042;28;20214;-82
2022/06/22 04:49:15;;;;;;;0.50;0.50;;;20.70;99.90;;;;;;5044849;28;20192;-82
2022/06/22 04:51:47;;;;;;;3.90;0.60;;;20.90;99.90;;;;;;5043175;28;20195;-82
2022/06/22 04:54:22;;;;;;;1.23;0.67;;;20.90;99.90;;;;;;5045205;28;20208;-82
2022/06/22 04:56:50;;;;;;;0.67;0.67;;;21.00;99.90;;;;;;5046456;28;20215;-82
2022/06/22 04:59:17;;;;;;;0.40;0.40;;;20.90;99.90;;;;;;5049318;28;20182;-82
2022/06/22 05:01:52;;;;;;;1.43;0.80;;;20.70;99.90;;;;;;5049258;28;20188;-82
2022/06/22 05:04:26;;;;;;;0.70;0.50;;;20.20;99.90;;;;;;5049141;28;20196;-82
2022/06/22 05:07:23;;;;;;;0.30;0.30;;;20.40;99.90;;;;;;5045631;28;20236;-82
2022/06/22 05:09:54;;;;;;;0.20;0.20;;;20.50;99.90;;;;;;5046019;28;20249;-81
2022/06/22 05:12:24;;;;;;;0.30;0.13;;;20.70;99.90;;;;;;5045555;28;20225;-81
2022/06/22 05:14:53;;;;;;;0.60;0.60;;;20.80;99.90;;;;;;5044297;28;20189;-81
2022/06/22 05:17:32;;;;;;;0.43;0.27;;;20.40;99.90;;;;;;5049126;28;20587;-81
2022/06/22 05:20:01;;;;;;;0.30;0.30;;;20.10;99.90;;;;;;5046457;28;20224;-81
2022/06/22 05:22:27;;;;;;;0.77;0.47;;;19.90;99.90;;;;;;5045238;28;20235;-81
2022/06/22 05:24:58;;;;;;;0.20;0.20;;;20.10;99.90;;;;;;5043349;28;20185;-81
2022/06/22 05:27:30;;;;;;;0.63;0.30;;;20.40;99.90;;;;;;5047020;28;20213;-82
2022/06/22 05:30:01;;;;;;;0.63;0.63;;;20.40;99.90;;;;;;5046471;28;20205;-82
2022/06/22 05:32:41;;;;;;;0.40;0.40;;;20.70;99.90;;;;;;5042724;28;20252;-82
2022/06/22 05:35:12;;;;;;;0.43;0.43;;;21.10;99.90;;;;;;5046562;28;20182;-82
2022/06/22 05:37:42;;;;;;;0.83;0.40;;;21.40;99.90;;;;;;5046240;28;20276;-82
2022/06/22 05:40:10;;;;;;;0.13;0.13;;;21.50;99.90;;;;;;5044634;28;20178;-82
2022/06/22 05:42:36;;;;;;;0.53;0.53;;;21.60;99.90;;;;;;5043040;28;20184;-82
2022/06/22 05:45:02;;;;;;;1.50;0.60;;;21.90;99.90;;;;;;5044923;28;20268;-82
2022/06/22 05:47:32;;;;;;;0.40;0.40;;;22.10;99.90;;;;;;5046774;28;20210;-82
2022/06/22 05:50:22;;;;;;;0.70;0.67;;;22.10;99.90;;;;;;5046693;28;21333;-82
2022/06/22 05:52:55;;;;;;;0.90;0.53;;;22.30;99.90;;;;;;5045184;28;20185;-84
2022/06/22 05:55:46;;;;;;;0.23;0.23;;;22.40;99.90;;;;;;5041801;28;20196;-84
2022/06/22 05:58:26;;;;;;;0.87;0.60;;;22.50;99.90;;;;;;5043644;28;20262;-85
2022/06/22 06:00:54;;;;;;;0.87;0.47;;;22.60;99.90;;;;;;5043484;28;20177;-85
2022/06/22 06:03:24;;;;;;;0.30;0.30;;;22.60;99.90;;;;;;5041611;28;20182;-85
2022/06/22 06:05:53;;;;;;;0.50;0.50;;;22.60;99.90;;;;;;5041260;28;20182;-85
2022/06/22 06:08:49;;;;;;;0.40;0.30;;;22.20;99.90;;;;;;5040915;28;20210;-85
2022/06/22 06:11:20;;;;;;;0.40;0.40;;;22.30;99.90;;;;;;5043460;28;20207;-84
2022/06/22 06:13:59;;;;;;;0.30;0.30;;;22.50;99.90;;;;;;5040251;28;20770;-85
2022/06/22 06:16:26;;;;;;;0.30;0.30;;;22.60;99.90;;;;;;5042587;28;20215;-85
2022/06/22 06:18:56;;;;;;;0.40;0.40;;;22.60;99.90;;;;;;5038767;28;20188;-85
2022/06/22 06:21:28;;;;;;;0.27;0.27;;;22.90;99.90;;;;;;5040095;28;20186;-84
2022/06/22 06:24:22;;;;;;;0.40;0.40;;;23.10;99.90;;;;;;5060031;28;20202;-85
2022/06/22 06:29:49;;;;;;;0.47;0.47;;;22.40;99.90;;;;;;5042637;28;20616;-85
2022/06/22 06:32:18;;;;;;;0.77;0.63;;;22.60;99.90;;;;;;5044176;28;20190;-85
2022/06/22 06:34:51;;;;;;;0.40;0.30;;;23.00;99.90;;;;;;5035768;28;20235;-86
2022/06/22 06:37:46;;;;;;;0.53;0.50;;;23.30;99.90;;;;;;5042799;28;20658;-85
2022/06/22 06:40:20;;;;;;;0.60;0.60;;;23.10;99.90;;;;;;5040446;28;20180;-85
2022/06/22 06:43:01;;;;;;;0.40;0.40;;;23.20;99.90;;;;;;5041502;28;20181;-85
2022/06/22 06:45:27;;;;;;;0.50;0.50;;;23.40;99.90;;;;;;5043081;28;20196;-85
2022/06/22 06:47:59;;;;;;;0.50;0.50;;;23.50;99.90;;;;;;5041485;28;20773;-86
2022/06/22 06:50:35;;;;;;;0.50;0.50;;;23.50;99.90;;;;;;5042432;28;20182;-85
2022/06/22 06:53:31;;;;;;;0.60;0.60;;;23.50;99.90;;;;;;5040488;28;20276;-87
2022/06/22 06:56:15;;;;;;;0.73;0.63;;;23.60;99.90;;;;;;5040499;28;20204;-82
2022/06/22 06:58:53;;;;;;;0.20;0.20;;;23.60;99.90;;;;;;5043316;28;20206;-82
2022/06/22 07:01:29;;;;;;;2.03;0.97;;;23.50;99.90;;;;;;5042730;28;20209;-83
2022/06/22 07:03:59;;;;;;;0.23;0.23;;;23.60;99.90;;;;;;5044141;28;20212;-82
2022/06/22 07:06:26;;;;;;;5.73;0.70;;;23.60;99.90;;;;;;5042583;28;21136;-82
2022/06/22 07:09:09;;;;;;;0.77;0.73;;;23.50;99.90;;;;;;5042174;28;20241;-82
2022/06/22 07:11:46;;;;;;;0.53;0.53;;;23.70;99.90;;;;;;5042195;28;20239;-82
2022/06/22 07:14:26;;;;;;;4.03;2.00;;;23.70;99.90;;;;;;5040040;28;20189;-82
2022/06/22 07:16:54;;;;;;;0.60;0.60;;;23.80;99.90;;;;;;5041369;28;20213;-82
2022/06/22 07:19:24;;;;;;;1.33;1.17;;;23.60;99.90;;;;;;5042530;28;20563;-82
2022/06/22 07:22:02;;;;;;;2.40;1.53;;;23.00;99.90;;;;;;5043124;28;20192;-80
2022/06/22 07:24:37;;;;;;;0.77;0.77;;;23.20;99.90;;;;;;5042857;28;20181;-82
2022/06/22 07:27:34;;;;;;;8.87;1.67;;;23.30;99.90;;;;;;5040323;28;20205;-82
2022/06/22 07:30:11;;;;;;;0.97;0.80;;;23.30;99.90;;;;;;5031007;28;20769;-83
2022/06/22 07:32:57;;;;;;;2.67;0.80;;;23.70;99.90;;;;;;5039962;28;20720;-81
2022/06/22 07:35:36;;;;;;;0.47;0.47;;;23.30;99.90;;;;;;5036373;28;20268;-83
2022/06/22 07:38:23;;;;;;;0.70;0.70;;;23.10;99.90;;;;;;5039036;28;20198;-81
2022/06/22 07:43:33;;;;;;;1.33;0.60;;;23.50;99.90;;;;;;5043112;28;20209;-85
2022/06/22 07:45:59;;;;;;;0.67;0.63;;;24.10;99.90;;;;;;5037122;28;20605;-84
2022/06/22 07:48:29;;;;;;;0.70;0.57;;;24.10;99.90;;;;;;5037113;28;20216;-85
2022/06/22 07:50:58;;;;;;;0.30;0.30;;;24.10;99.90;;;;;;5040686;28;20243;-83
2022/06/22 07:53:45;;;;;;;0.77;0.70;;;23.80;99.90;;;;;;5035030;28;20196;-83
2022/06/22 07:57:01;;;;;;;0.40;0.40;;;23.90;99.90;;;;;;5042939;28;20201;-82
2022/06/22 07:59:45;;;;;;;0.70;0.70;;;23.90;99.90;;;;;;5038834;28;20181;-82
2022/06/22 08:02:19;;;;;;;0.53;0.53;;;24.30;99.90;;;;;;5048312;28;20178;-82
2022/06/22 08:05:18;;;;;;;0.47;0.30;;;24.80;99.90;;;;;;5033385;28;20818;-83
2022/06/22 08:08:15;;;;;;;0.50;0.50;;;25.10;99.90;;;;;;5034124;28;20209;-83
2022/06/22 08:11:23;;;;;;;0.33;0.33;;;25.30;99.90;;;;;;5041157;28;20177;-82
2022/06/22 08:13:58;;;;;;;0.53;0.53;;;25.40;99.90;;;;;;5044675;28;20191;-83
2022/06/22 08:16:33;;;;;;;0.37;0.37;;;25.20;99.90;;;;;;5045143;28;20220;-83
2022/06/22 08:19:00;;;;;;;0.60;0.60;;;25.10;99.90;;;;;;5043338;28;20189;-83
2022/06/22 08:21:27;;;;;;;0.33;0.30;;;25.60;99.90;;;;;;5044723;28;20186;-83
2022/06/22 08:23:56;;;;;;;0.50;0.50;;;25.60;99.90;;;;;;5043408;28;20200;-83
2022/06/22 08:26:33;;;;;;;0.43;0.43;;;25.40;99.90;;;;;;5040155;28;20213;-83
2022/06/22 08:29:01;;;;;;;0.90;0.90;;;25.80;99.90;;;;;;5043701;28;20575;-83
2022/06/22 08:31:36;;;;;;;0.40;0.40;;;25.70;99.90;;;;;;5044486;28;21050;-83
2022/06/22 08:34:06;;;;;;;0.43;0.43;;;25.50;99.90;;;;;;5042568;28;20185;-83
2022/06/22 08:36:44;;;;;;;0.47;0.47;;;25.20;99.90;;;;;;5038521;28;20231;-83
2022/06/22 08:39:19;;;;;;;0.40;0.40;;;25.60;99.90;;;;;;5044538;28;20280;-83
2022/06/22 08:42:09;;;;;;;0.40;0.40;;;26.10;99.90;;;;;;5043697;28;20676;-83
2022/06/22 08:44:40;;;;;;;0.40;0.40;;;26.30;99.90;;;;;;5039039;28;20174;-83
2022/06/22 08:47:06;;;;;;;0.30;0.30;;;26.70;99.90;;;;;;5041379;28;20292;-82
2022/06/22 08:49:54;;;;;;;0.70;0.70;;;26.90;99.90;;;;;;5042274;28;20786;-82
2022/06/22 08:52:58;;;;;;;0.40;0.40;;;26.90;99.90;;;;;;5043540;28;20190;-82
2022/06/22 08:55:50;;;;;;;0.50;0.37;;;27.10;99.90;;;;;;5023314;28;20628;-82
2022/06/22 08:58:37;;;;;;;0.53;0.53;;;27.30;99.90;;;;;;5044287;28;20674;-83
2022/06/22 09:01:09;;;;;;;0.57;0.20;;;27.30;99.90;;;;;;5042744;28;20178;-81
2022/06/22 09:03:59;;;;;;;0.60;0.60;;;27.40;99.90;;;;;;5046130;28;20216;-81
2022/06/22 09:06:54;;;;;;;0.45;0.45;;;27.60;99.90;;;;;;5045954;28;20178;-82
2022/06/22 09:09:28;;;;;;;0.45;0.45;;;27.90;99.90;;;;;;5038300;28;20181;-81
2022/06/22 09:11:59;;;;;;;0.40;0.40;;;27.90;99.90;;;;;;5045720;28;20189;-81
2022/06/22 09:14:58;;;;;;;0.85;0.82;;;27.90;99.90;;;;;;5040306;28;20698;-82
2022/06/22 09:17:33;;;;;;;0.55;0.50;;;28.10;99.90;;;;;;5045156;28;20241;-82
2022/06/22 09:20:09;;;;;;;0.70;0.70;;;28.20;99.90;;;;;;5043504;28;20558;-81
2022/06/22 09:23:04;;;;;;;1.13;0.38;;;27.60;99.90;;;;;;5045102;28;20181;-81
2022/06/22 09:25:41;;;;;;;0.80;0.80;;;28.00;99.90;;;;;;5046690;28;20178;-81
2022/06/22 09:28:11;;;;;;;0.40;0.40;;;28.40;99.90;;;;;;5044275;28;20232;-81
2022/06/22 09:31:04;;;;;;;0.30;0.30;;;28.40;99.90;;;;;;5045229;28;20181;-81
2022/06/22 09:33:45;;;;;;;0.45;0.45;;;28.50;99.90;;;;;;5045104;28;20681;-81
2022/06/22 09:36:47;;;;;;;0.40;0.40;;;28.70;99.90;;;;;;5043986;28;20213;-81
2022/06/22 09:39:45;;;;;;;0.40;0.40;;;28.80;99.90;;;;;;5045857;28;20646;-82
2022/06/22 09:42:25;;;;;;;0.43;0.43;;;29.00;99.90;;;;;;5043609;28;20182;-82
2022/06/22 09:45:21;;;;;;;1.35;0.77;;;29.10;99.90;;;;;;5044043;28;20181;-81
2022/06/22 09:47:53;;;;;;;0.50;0.45;;;29.40;99.90;;;;;;5013128;28;20281;-81
2022/06/22 09:50:44;;;;;;;0.35;0.35;;;29.80;99.90;;;;;;5045220;28;20186;-81
2022/06/22 09:53:41;;;;;;;0.28;0.28;;;30.00;99.90;;;;;;5041169;28;20262;-81
2022/06/22 09:56:27;;;;;;;3.78;0.60;;;30.20;99.90;;;;;;5044655;28;21120;-81
2022/06/22 09:59:11;;;;;;;0.57;0.55;;;30.40;99.90;;;;;;5045235;28;20193;-82
2022/06/22 10:01:59;;;;;;;0.40;0.40;;;29.70;99.90;;;;;;5045055;28;20347;-81
2022/06/22 10:04:58;;;;;;;0.32;0.32;;;29.60;99.90;;;;;;5039397;28;20618;-82
2022/06/22 10:07:24;;;;;;;2.92;0.30;;;30.10;99.90;;;;;;5043699;28;20225;-81
2022/06/22 10:10:23;;;;;;;0.63;0.63;;;30.30;99.90;;;;;;5045568;28;20218;-81
2022/06/22 10:13:09;;;;;;;0.63;0.57;;;29.00;99.90;;;;;;5039361;28;20301;-81
2022/06/22 10:16:00;;;;;;;1.15;1.00;;;29.50;99.90;;;;;;5043047;28;20681;-81
2022/06/22 10:18:28;;;;;;;0.45;0.45;;;29.70;99.90;;;;;;5048293;28;20212;-81
2022/06/22 10:21:21;;;;;;;0.80;0.43;;;29.10;99.90;;;;;;5044308;28;20181;-81
2022/06/22 10:24:00;;;;;;;1.38;0.77;;;29.10;99.90;;;;;;5044429;28;20178;-81
2022/06/22 10:26:57;;;;;;;0.68;0.68;;;29.10;99.90;;;;;;5044490;28;20181;-81
2022/06/22 10:29:57;;;;;;;0.60;0.60;;;29.70;99.90;;;;;;5042400;28;20208;-81
2022/06/22 10:32:38;;;;;;;0.38;0.38;;;30.20;99.90;;;;;;5037901;28;20463;-82
2022/06/22 10:35:22;;;;;;;0.40;0.40;;;30.30;99.90;;;;;;5043559;28;21129;-81
2022/06/22 10:38:15;;;;;;;0.95;0.95;;;30.30;99.90;;;;;;5045546;28;20228;-82
2022/06/22 10:47:23;;;;;;;0.35;0.35;;;30.50;99.90;;;;;;5044815;28;20232;-82
2022/06/22 10:50:09;;;;;;;0.50;0.50;;;30.70;99.90;;;;;;5045362;28;20185;-81
2022/06/22 10:53:12;;;;;;;0.45;0.45;;;30.10;99.90;;;;;;5044391;28;20185;-81
2022/06/22 10:56:20;;;;;;;0.30;0.30;;;30.10;99.90;;;;;;5043368;28;20188;-82
2022/06/22 10:58:58;;;;;;;0.60;0.60;;;29.90;99.90;;;;;;5042228;28;20229;-81
2022/06/22 11:01:54;;;;;;;0.95;0.80;;;29.70;99.90;;;;;;5044592;28;20197;-81
2022/06/22 11:05:00;;;;;;;0.68;0.68;;;29.90;99.90;;;;;;5043687;28;20190;-81
2022/06/22 11:07:54;;;;;;;0.55;0.50;;;29.30;99.90;;;;;;5045947;28;20201;-81
2022/06/22 11:10:53;;;;;;;0.93;0.68;;;28.90;99.90;;;;;;5043831;28;20193;-82
2022/06/22 11:13:40;;;;;;;0.45;0.45;;;29.30;99.90;;;;;;5044364;28;20727;-82
2022/06/22 11:16:36;;;;;;;0.80;0.55;;;29.30;99.90;;;;;;5044795;28;20229;-82
2022/06/22 11:19:07;;;;;;;0.47;0.47;;;29.10;99.90;;;;;;5044006;28;20185;-81
2022/06/22 11:21:54;;;;;;;1.10;1.00;;;29.40;99.90;;;;;;5044405;28;20190;-81
2022/06/22 11:24:41;;;;;;;0.93;0.70;;;29.30;99.90;;;;;;5044424;28;20191;-81
2022/06/22 11:30:51;;;;;;;0.90;0.73;;;30.20;99.90;;;;;;5044352;28;20215;-81
2022/06/22 11:33:41;;;;;;;0.60;0.60;;;30.70;99.90;;;;;;4996280;28;20253;-81
2022/06/22 11:36:13;;;;;;;0.70;0.70;;;31.10;99.90;;;;;;5060468;28;20688;-81
2022/06/22 11:38:38;;;;;;;0.57;0.57;;;31.30;99.90;;;;;;5043310;28;20266;-81
2022/06/22 11:41:47;;;;;;;1.45;1.35;;;31.20;99.90;;;;;;5039181;28;20228;-81
2022/06/22 11:45:49;;;;;;;0.80;0.77;;;30.70;99.90;;;;;;5012830;28;20259;-81
2022/06/22 11:47:45;;;;;;;0.45;0.45;;;29.40;99.90;;;;;;5046218;28;20216;-81
2022/06/22 11:50:45;;;;;;;0.52;0.40;;;30.30;99.90;;;;;;5044451;28;20178;-81
2022/06/22 11:53:21;;;;;;;0.38;0.38;;;30.50;99.90;;;;;;5040037;28;20186;-83
2022/06/22 11:55:54;;;;;;;0.50;0.50;;;30.90;99.90;;;;;;5040968;28;21399;-83
2022/06/22 11:58:59;;;;;;;0.85;0.30;;;31.40;99.90;;;;;;5041866;28;20237;-81
2022/06/22 12:01:53;;;;;;;0.55;0.55;;;31.90;99.90;;;;;;5039913;28;20745;-81
2022/06/22 12:04:45;;;;;;;0.40;0.40;;;30.30;99.90;;;;;;5042305;28;20242;-81
2022/06/22 12:07:31;;;;;;;0.50;0.50;;;30.40;99.90;;;;;;5042345;28;20209;-81
2022/06/22 12:10:30;;;;;;;0.75;0.75;;;30.10;99.90;;;;;;5041186;28;20201;-81
2022/06/22 12:13:22;;;;;;;0.65;0.65;;;30.50;99.90;;;;;;5042135;28;20197;-81
2022/06/22 12:16:00;;;;;;;0.50;0.50;;;31.10;99.90;;;;;;5039879;28;20196;-81
2022/06/22 12:18:50;;;;;;;0.50;0.50;;;30.90;99.90;;;;;;5039810;28;20243;-81
2022/06/22 12:21:21;;;;;;;0.73;0.70;;;30.30;99.90;;;;;;5042603;28;20740;-81
2022/06/22 12:24:01;;;;;;;0.80;0.80;;;30.00;99.90;;;;;;5041190;28;20283;-83
2022/06/22 12:26:43;;;;;;;0.47;0.47;;;29.10;99.90;;;;;;5042731;28;20182;-83
2022/06/22 12:29:23;;;;;;;0.50;0.50;;;29.90;99.90;;;;;;5040788;28;20310;-81
2022/06/22 12:31:55;;;;;;;0.60;0.60;;;30.50;99.90;;;;;;5042163;28;20174;-81
2022/06/22 12:34:35;;;;;;;1.00;0.20;;;30.90;99.90;;;;;;5038070;28;20281;-81
2022/06/22 12:37:20;;;;;;;0.50;0.50;;;31.00;99.90;;;;;;5038378;28;20213;-85
2022/06/22 12:40:11;;;;;;;0.65;0.65;;;31.30;99.90;;;;;;5035053;28;20178;-82
2022/06/22 12:43:10;;;;;;;0.50;0.50;;;31.40;99.90;;;;;;5030347;28;20247;-82
2022/06/22 12:45:51;;;;;;;1.38;1.35;;;31.80;99.90;;;;;;5033420;28;20182;-82
2022/06/22 12:48:35;;;;;;;0.47;0.47;;;31.80;99.90;;;;;;5038373;28;20201;-82
2022/06/22 12:51:38;;;;;;;1.70;1.10;;;31.80;99.90;;;;;;5031085;28;20614;-82
2022/06/22 12:54:13;;;;;;;0.90;0.82;;;32.00;99.90;;;;;;5041260;28;20235;-82
2022/06/22 12:56:49;;;;;;;0.40;0.40;;;32.00;99.90;;;;;;5041202;28;20212;-82
2022/06/22 12:59:52;;;;;;;0.52;0.52;;;32.10;99.90;;;;;;5043953;28;20184;-82
2022/06/22 13:02:30;;;;;;;0.60;0.60;;;32.10;99.90;;;;;;5045319;28;20187;-83
2022/06/22 13:05:00;;;;;;;0.57;0.50;;;31.80;99.90;;;;;;5045051;28;20211;-82
2022/06/22 13:07:27;;;;;;;0.50;0.50;;;31.70;99.90;;;;;;5045616;28;20363;-83
2022/06/22 13:09:52;;;;;;;0.50;0.50;;;31.80;99.90;;;;;;5036950;28;20196;-82
2022/06/22 13:12:28;;;;;;;0.57;0.57;;;31.90;99.90;;;;;;5044734;28;20190;-83
2022/06/22 13:15:04;;;;;;;0.38;0.38;;;31.90;99.90;;;;;;5038748;28;20567;-83
2022/06/22 13:18:02;;;;;;;0.52;0.52;;;31.80;99.90;;;;;;5044215;28;20244;-83
2022/06/22 13:20:58;;;;;;;0.45;0.45;;;31.60;99.90;;;;;;5032973;28;20217;-84
2022/06/22 13:23:51;;;;;;;0.57;0.57;;;31.20;99.90;;;;;;5041055;28;20177;-84
2022/06/22 13:26:57;;;;;;;0.73;0.73;;;31.40;99.90;;;;;;5041145;28;20694;-83
2022/06/22 13:29:42;;;;;;;1.45;1.40;;;31.00;99.90;;;;;;5040799;28;20209;-85
2022/06/22 13:32:10;;;;;;;0.70;0.70;;;30.90;99.90;;;;;;5041880;28;20181;-84
2022/06/22 13:34:51;;;;;;;0.52;0.47;;;31.10;99.90;;;;;;5042425;28;20189;-85
2022/06/22 13:37:33;;;;;;;1.27;0.98;;;31.40;99.90;;;;;;5041099;28;20657;-84
2022/06/22 13:40:05;;;;;;;0.60;0.60;;;31.40;99.90;;;;;;5040837;28;21119;-84
2022/06/22 13:42:39;;;;;;;0.38;0.38;;;31.60;99.90;;;;;;5042413;28;20181;-85
2022/06/22 13:45:36;;;;;;;0.45;0.45;;;31.60;99.90;;;;;;5043194;28;20655;-84
2022/06/22 13:48:30;;;;;;;0.43;0.43;;;31.80;99.90;;;;;;5042444;28;20268;-83
2022/06/22 13:51:35;;;;;;;0.43;0.43;;;32.20;99.90;;;;;;5044764;28;20200;-82
2022/06/22 13:54:26;;;;;;;0.70;0.63;;;32.20;99.90;;;;;;5044388;28;20186;-82
2022/06/22 13:57:29;;;;;;;0.45;0.45;;;32.30;99.90;;;;;;5041104;28;20205;-82
2022/06/22 14:00:09;;;;;;;0.80;0.80;;;32.20;99.90;;;;;;5042281;28;20170;-82
2022/06/22 14:02:38;;;;;;;0.75;0.70;;;32.00;99.90;;;;;;5043111;28;20261;-82
2022/06/22 14:05:25;;;;;;;2.13;1.50;;;32.20;99.90;;;;;;5041535;28;20182;-82
2022/06/22 14:08:02;;;;;;;0.63;0.63;;;32.20;99.90;;;;;;5041072;28;20205;-82
2022/06/22 14:10:45;;;;;;;0.40;0.35;;;32.20;99.90;;;;;;5043023;28;20714;-82
2022/06/22 14:13:25;;;;;;;0.52;0.43;;;32.40;99.90;;;;;;5035362;28;20202;-82